sensor_id;sensor_type;location;lat;lon;timestamp;temperature;humidity
9385;DHT22;4732;49.340;10.886;2023-11-19T04:05:26;6.40;99.90
9385;DHT22;4732;49.340;10.886;2023-11-19T04:07:52;6.40;99.90
9385;DHT22;4732;49.340;10.886;2023-11-19T04:10:17;6.60;99.90
9385;DHT22;4732;49.340;10.886;2023-11-19T04:12:43;6.60;99.90
9385;DHT22;4732;49.340;10.886;2023-11-19T04:15:10;6.70;99.90
9385;DHT22;4732;49.340;10.886;2023-11-19T04:17:36;6.70;99.90
9385;DHT22;4732;49.340;10.886;2023-11-19T04:20:01;6.80;99.90
9385;DHT22;4732;49.340;10.886;2023-11-19T04:22:29;6.80;99.90
9385;DHT22;4732;49.340;10.886;2023-11-19T04:24:54;6.90;99.90
9385;DHT22;4732;49.340;10.886;2023-11-19T04:27:20;7.00;99.90
9385;DHT22;4732;49.340;10.886;2023-11-19T04:29:45;7.00;99.90
9385;DHT22;4732;49.340;10.886;2023-11-19T04:32:12;7.00;99.90
9385;DHT22;4732;49.340;10.886;2023-11-19T04:34:38;7.10;99.90
9385;DHT22;4732;49.340;10.886;2023-11-19T04:37:04;7.10;99.90
9385;DHT22;4732;49.340;10.886;2023-11-19T04:39:29;7.10;99.90
9385;DHT22;4732;49.340;10.886;2023-11-19T04:41:55;7.10;99.90
9385;DHT22;4732;49.340;10.886;2023-11-19T04:44:21;7.10;99.90
9385;DHT22;4732;49.340;10.886;2023-11-19T04:46:47;7.20;99.90
9385;DHT22;4732;49.340;10.886;2023-11-19T04:49:13;7.30;99.90
9385;DHT22;4732;49.340;10.886;2023-11-19T04:51:44;7.40;99.90
9385;DHT22;4732;49.340;10.886;2023-11-19T04:54:12;7.40;99.90
9385;DHT22;4732;49.340;10.886;2023-11-19T04:56:38;7.50;99.90
9385;DHT22;4732;49.340;10.886;2023-11-19T04:59:04;7.50;99.90
9385;DHT22;4732;49.340;10.886;2023-11-19T05:01:31;7.50;99.90
9385;DHT22;4732;49.340;10.886;2023-11-19T05:03:57;7.50;99.90
9385;DHT22;4732;49.340;10.886;2023-11-19T05:06:29;7.60;99.90
9385;DHT22;4732;49.340;10.886;2023-11-19T05:08:55;7.70;99.90
9385;DHT22;4732;49.340;10.886;2023-11-19T05:11:21;7.80;99.90
9385;DHT22;4732;49.340;10.886;2023-11-19T05:13:47;7.90;99.90
9385;DHT22;4732;49.340;10.886;2023-11-19T05:16:12;7.90;99.90
9385;DHT22;4732;49.340;10.886;2023-11-19T05:18:41;8.00;99.90
9385;DHT22;4732;49.340;10.886;2023-11-19T05:21:07;8.00;99.90
9385;DHT22;4732;49.340;10.886;2023-11-19T05:23:33;8.00;99.90
9385;DHT22;4732;49.340;10.886;2023-11-19T05:26:01;8.00;99.90
9385;DHT22;4732;49.340;10.886;2023-11-19T05:28:27;7.90;99.90
9385;DHT22;4732;49.340;10.886;2023-11-19T05:30:53;8.00;99.90
9385;DHT22;4732;49.340;10.886;2023-11-19T05:33:18;8.00;99.90
9385;DHT22;4732;49.340;10.886;2023-11-19T05:35:44;8.10;99.90
9385;DHT22;4732;49.340;10.886;2023-11-19T05:38:09;8.10;99.90
9385;DHT22;4732;49.340;10.886;2023-11-19T05:40:35;8.10;99.90
9385;DHT22;4732;49.340;10.886;2023-11-19T05:43:01;8.10;99.90
9385;DHT22;4732;49.340;10.886;2023-11-19T05:45:26;8.10;99.90
9385;DHT22;4732;49.340;10.886;2023-11-19T05:47:52;8.10;99.90
9385;DHT22;4732;49.340;10.886;2023-11-19T05:50:18;8.20;99.90
9385;DHT22;4732;49.340;10.886;2023-11-19T05:52:43;8.20;99.90
9385;DHT22;4732;49.340;10.886;2023-11-19T05:55:09;8.10;99.90
9385;DHT22;4732;49.340;10.886;2023-11-19T05:57:39;8.10;99.90
9385;DHT22;4732;49.340;10.886;2023-11-19T06:00:06;8.10;99.90
9385;DHT22;4732;49.340;10.886;2023-11-19T06:02:34;8.10;99.90
9385;DHT22;4732;49.340;10.886;2023-11-19T06:05:00;8.10;99.90
9385;DHT22;4732;49.340;10.886;2023-11-19T06:07:25;8.20;99.90
9385;DHT22;4732;49.340;10.886;2023-11-19T06:09:51;8.20;99.90
9385;DHT22;4732;49.340;10.886;2023-11-19T06:12:17;8.30;99.90
9385;DHT22;4732;49.340;10.886;2023-11-19T06:14:42;8.20;99.90
9385;DHT22;4732;49.340;10.886;2023-11-19T06:17:08;8.30;99.90
9385;DHT22;4732;49.340;10.886;2023-11-19T06:19:36;8.30;99.90
9385;DHT22;4732;49.340;10.886;2023-11-19T06:22:01;8.30;99.90
9385;DHT22;4732;49.340;10.886;2023-11-19T06:24:27;8.30;99.90
9385;DHT22;4732;49.340;10.886;2023-11-19T06:26:53;8.30;99.90
9385;DHT22;4732;49.340;10.886;2023-11-19T06:29:19;8.40;99.90
9385;DHT22;4732;49.340;10.886;2023-11-19T06:31:45;8.40;99.90
9385;DHT22;4732;49.340;10.886;2023-11-19T06:34:14;8.40;99.90
9385;DHT22;4732;49.340;10.886;2023-11-19T06:36:39;8.40;99.90
9385;DHT22;4732;49.340;10.886;2023-11-19T06:39:05;8.50;99.90
9385;DHT22;4732;49.340;10.886;2023-11-19T06:41:31;8.50;99.90
9385;DHT22;4732;49.340;10.886;2023-11-19T06:43:56;8.60;99.90
9385;DHT22;4732;49.340;10.886;2023-11-19T06:46:22;8.60;99.90
9385;DHT22;4732;49.340;10.886;2023-11-19T06:48:47;8.70;99.90
9385;DHT22;4732;49.340;10.886;2023-11-19T06:51:13;8.70;99.90
9385;DHT22;4732;49.340;10.886;2023-11-19T06:53:39;8.80;99.90
9385;DHT22;4732;49.340;10.886;2023-11-19T06:56:06;8.90;99.90
9385;DHT22;4732;49.340;10.886;2023-11-19T06:58:42;9.00;99.90
9385;DHT22;4732;49.340;10.886;2023-11-19T07:01:07;8.90;99.90
9385;DHT22;4732;49.340;10.886;2023-11-19T07:03:35;9.00;99.90
9385;DHT22;4732;49.340;10.886;2023-11-19T07:06:00;9.10;99.90
9385;DHT22;4732;49.340;10.886;2023-11-19T07:08:26;9.10;99.90
9385;DHT22;4732;49.340;10.886;2023-11-19T07:10:52;9.10;99.90
9385;DHT22;4732;49.340;10.886;2023-11-19T07:13:17;9.10;99.90
9385;DHT22;4732;49.340;10.886;2023-11-19T07:15:44;9.30;99.90
9385;DHT22;4732;49.340;10.886;2023-11-19T07:18:10;9.30;99.90
9385;DHT22;4732;49.340;10.886;2023-11-19T07:20:37;9.40;99.90
9385;DHT22;4732;49.340;10.886;2023-11-19T07:23:03;9.40;99.90
9385;DHT22;4732;49.340;10.886;2023-11-19T07:25:29;9.40;99.90
9385;DHT22;4732;49.340;10.886;2023-11-19T07:27:54;9.50;99.90
9385;DHT22;4732;49.340;10.886;2023-11-19T07:30:20;9.50;99.90
9385;DHT22;4732;49.340;10.886;2023-11-19T07:32:45;9.50;99.90
9385;DHT22;4732;49.340;10.886;2023-11-19T07:35:11;9.40;99.90
9385;DHT22;4732;49.340;10.886;2023-11-19T07:37:37;9.50;99.90
9385;DHT22;4732;49.340;10.886;2023-11-19T07:40:03;9.50;99.90
9385;DHT22;4732;49.340;10.886;2023-11-19T07:42:29;9.60;99.90
9385;DHT22;4732;49.340;10.886;2023-11-19T07:44:54;9.60;99.90
9385;DHT22;4732;49.340;10.886;2023-11-19T07:47:21;9.70;99.90
9385;DHT22;4732;49.340;10.886;2023-11-19T07:49:49;9.70;99.90
9385;DHT22;4732;49.340;10.886;2023-11-19T07:52:15;9.80;99.90
9385;DHT22;4732;49.340;10.886;2023-11-19T07:54:40;9.80;99.90
9385;DHT22;4732;49.340;10.886;2023-11-19T07:57:06;9.80;99.90
9385;DHT22;4732;49.340;10.886;2023-11-19T07:59:31;9.80;99.90
9385;DHT22;4732;49.340;10.886;2023-11-19T08:01:57;9.90;99.90
9385;DHT22;4732;49.340;10.886;2023-11-19T08:04:23;9.90;99.90
9385;DHT22;4732;49.340;10.886;2023-11-19T08:06:49;9.90;99.90
9385;DHT22;4732;49.340;10.886;2023-11-19T08:09:14;10.00;99.90
9385;DHT22;4732;49.340;10.886;2023-11-19T08:11:43;10.00;99.90
9385;DHT22;4732;49.340;10.886;2023-11-19T08:14:09;10.00;99.90
9385;DHT22;4732;49.340;10.886;2023-11-19T08:16:35;10.10;99.90
9385;DHT22;4732;49.340;10.886;2023-11-19T08:19:02;10.10;99.90
9385;DHT22;4732;49.340;10.886;2023-11-19T08:21:28;10.20;99.90
9385;DHT22;4732;49.340;10.886;2023-11-19T08:23:54;10.20;99.90
9385;DHT22;4732;49.340;10.886;2023-11-19T08:26:19;10.20;99.90
9385;DHT22;4732;49.340;10.886;2023-11-19T08:28:45;10.30;99.90
9385;DHT22;4732;49.340;10.886;2023-11-19T08:31:10;10.40;99.90
9385;DHT22;4732;49.340;10.886;2023-11-19T08:33:36;10.40;99.90
9385;DHT22;4732;49.340;10.886;2023-11-19T08:36:01;10.40;99.90
9385;DHT22;4732;49.340;10.886;2023-11-19T08:38:29;10.50;99.90
9385;DHT22;4732;49.340;10.886;2023-11-19T08:40:54;10.60;99.90
9385;DHT22;4732;49.340;10.886;2023-11-19T08:43:25;10.60;99.90
9385;DHT22;4732;49.340;10.886;2023-11-19T08:45:51;10.60;99.90
9385;DHT22;4732;49.340;10.886;2023-11-19T08:48:16;10.70;99.90
9385;DHT22;4732;49.340;10.886;2023-11-19T08:50:42;10.80;99.90
9385;DHT22;4732;49.340;10.886;2023-11-19T08:53:07;10.70;99.90
9385;DHT22;4732;49.340;10.886;2023-11-19T08:55:33;10.80;99.90
9385;DHT22;4732;49.340;10.886;2023-11-19T08:57:58;10.80;99.90
9385;DHT22;4732;49.340;10.886;2023-11-19T09:00:24;10.90;99.90
9385;DHT22;4732;49.340;10.886;2023-11-19T09:02:49;11.00;99.90
9385;DHT22;4732;49.340;10.886;2023-11-19T09:05:15;11.10;99.90
9385;DHT22;4732;49.340;10.886;2023-11-19T09:07:40;11.10;99.90
9385;DHT22;4732;49.340;10.886;2023-11-19T09:10:06;11.20;99.90
9385;DHT22;4732;49.340;10.886;2023-11-19T09:12:34;11.30;99.90
9385;DHT22;4732;49.340;10.886;2023-11-19T09:14:59;11.30;99.90
9385;DHT22;4732;49.340;10.886;2023-11-19T09:17:25;11.30;99.90
9385;DHT22;4732;49.340;10.886;2023-11-19T09:19:50;11.30;99.90
9385;DHT22;4732;49.340;10.886;2023-11-19T09:22:16;11.40;99.90
9385;DHT22;4732;49.340;10.886;2023-11-19T09:24:41;11.50;99.90
9385;DHT22;4732;49.340;10.886;2023-11-19T09:27:09;11.50;99.90
9385;DHT22;4732;49.340;10.886;2023-11-19T09:29:34;11.60;99.90
9385;DHT22;4732;49.340;10.886;2023-11-19T09:32:00;11.60;99.90
9385;DHT22;4732;49.340;10.886;2023-11-19T09:34:26;11.60;99.90
9385;DHT22;4732;49.340;10.886;2023-11-19T09:36:51;11.60;99.90
9385;DHT22;4732;49.340;10.886;2023-11-19T09:39:17;11.60;99.90
9385;DHT22;4732;49.340;10.886;2023-11-19T09:41:44;11.60;99.90
9385;DHT22;4732;49.340;10.886;2023-11-19T09:44:11;11.50;99.90
9385;DHT22;4732;49.340;10.886;2023-11-19T09:46:39;11.50;99.90
9385;DHT22;4732;49.340;10.886;2023-11-19T09:49:06;11.50;99.90
9385;DHT22;4732;49.340;10.886;2023-11-19T09:51:35;11.50;99.90
9385;DHT22;4732;49.340;10.886;2023-11-19T09:54:00;11.40;99.90
9385;DHT22;4732;49.340;10.886;2023-11-19T09:56:28;11.40;99.90
9385;DHT22;4732;49.340;10.886;2023-11-19T09:58:55;11.40;99.90
9385;DHT22;4732;49.340;10.886;2023-11-19T10:01:20;11.50;99.90
9385;DHT22;4732;49.340;10.886;2023-11-19T10:03:47;11.50;99.90
9385;DHT22;4732;49.340;10.886;2023-11-19T10:06:14;11.50;99.90
9385;DHT22;4732;49.340;10.886;2023-11-19T10:08:41;11.40;99.90
9385;DHT22;4732;49.340;10.886;2023-11-19T10:11:07;11.30;99.90
9385;DHT22;4732;49.340;10.886;2023-11-19T10:13:35;11.30;99.90
9385;DHT22;4732;49.340;10.886;2023-11-19T10:16:07;11.30;99.90
9385;DHT22;4732;49.340;10.886;2023-11-19T10:18:33;11.30;99.90
9385;DHT22;4732;49.340;10.886;2023-11-19T10:21:06;11.30;99.90
9385;DHT22;4732;49.340;10.886;2023-11-19T10:23:31;11.30;99.90
9385;DHT22;4732;49.340;10.886;2023-11-19T10:26:12;11.50;99.90
9385;DHT22;4732;49.340;10.886;2023-11-19T10:28:39;11.60;99.90
9385;DHT22;4732;49.340;10.886;2023-11-19T10:31:07;11.70;99.90
9385;DHT22;4732;49.340;10.886;2023-11-19T10:33:33;11.70;99.90
9385;DHT22;4732;49.340;10.886;2023-11-19T10:35:58;11.80;99.90
9385;DHT22;4732;49.340;10.886;2023-11-19T10:38:27;11.90;99.90
9385;DHT22;4732;49.340;10.886;2023-11-19T10:40:53;12.00;99.90
9385;DHT22;4732;49.340;10.886;2023-11-19T10:43:20;12.10;99.90
9385;DHT22;4732;49.340;10.886;2023-11-19T10:45:49;12.10;99.90
9385;DHT22;4732;49.340;10.886;2023-11-19T10:48:15;12.30;99.90
9385;DHT22;4732;49.340;10.886;2023-11-19T10:50:42;12.40;99.90
9385;DHT22;4732;49.340;10.886;2023-11-19T10:53:10;12.50;99.90
9385;DHT22;4732;49.340;10.886;2023-11-19T10:55:37;12.60;99.90
9385;DHT22;4732;49.340;10.886;2023-11-19T10:58:07;12.60;99.90
9385;DHT22;4732;49.340;10.886;2023-11-19T11:00:54;12.70;99.90
9385;DHT22;4732;49.340;10.886;2023-11-19T11:03:24;12.70;99.90
9385;DHT22;4732;49.340;10.886;2023-11-19T11:05:51;12.80;99.90
9385;DHT22;4732;49.340;10.886;2023-11-19T11:08:18;12.70;99.90
9385;DHT22;4732;49.340;10.886;2023-11-19T11:10:53;12.60;99.90
9385;DHT22;4732;49.340;10.886;2023-11-19T11:13:22;12.50;99.90
9385;DHT22;4732;49.340;10.886;2023-11-19T11:15:49;12.60;99.90
9385;DHT22;4732;49.340;10.886;2023-11-19T11:18:16;12.70;99.90
9385;DHT22;4732;49.340;10.886;2023-11-19T11:20:44;12.70;99.90
9385;DHT22;4732;49.340;10.886;2023-11-19T11:26:35;12.70;99.90
9385;DHT22;4732;49.340;10.886;2023-11-19T11:29:14;12.70;99.90
9385;DHT22;4732;49.340;10.886;2023-11-19T11:35:08;12.90;99.90
9385;DHT22;4732;49.340;10.886;2023-11-19T11:37:49;13.00;99.90
9385;DHT22;4732;49.340;10.886;2023-11-19T11:40:16;13.10;99.90
9385;DHT22;4732;49.340;10.886;2023-11-19T11:42:44;13.00;99.90
9385;DHT22;4732;49.340;10.886;2023-11-19T11:45:10;12.70;99.90
9385;DHT22;4732;49.340;10.886;2023-11-19T11:50:20;12.80;99.90
9385;DHT22;4732;49.340;10.886;2023-11-19T11:55:27;12.70;99.90
9385;DHT22;4732;49.340;10.886;2023-11-19T11:57:54;12.80;99.90
9385;DHT22;4732;49.340;10.886;2023-11-19T12:00:39;12.90;99.90
9385;DHT22;4732;49.340;10.886;2023-11-19T12:03:07;13.10;99.90
9385;DHT22;4732;49.340;10.886;2023-11-19T12:05:33;13.20;99.90
9385;DHT22;4732;49.340;10.886;2023-11-19T12:08:04;13.30;99.90
9385;DHT22;4732;49.340;10.886;2023-11-19T12:10:45;13.50;99.90
9385;DHT22;4732;49.340;10.886;2023-11-19T12:13:13;13.60;99.90
9385;DHT22;4732;49.340;10.886;2023-11-19T12:18:29;14.00;99.90
9385;DHT22;4732;49.340;10.886;2023-11-19T12:20:56;14.10;99.90
9385;DHT22;4732;49.340;10.886;2023-11-19T12:23:22;14.20;99.90
9385;DHT22;4732;49.340;10.886;2023-11-19T12:25:48;14.30;99.90
9385;DHT22;4732;49.340;10.886;2023-11-19T12:28:14;14.20;99.90
9385;DHT22;4732;49.340;10.886;2023-11-19T12:30:42;14.10;99.90
9385;DHT22;4732;49.340;10.886;2023-11-19T12:33:09;14.10;99.90
9385;DHT22;4732;49.340;10.886;2023-11-19T12:35:43;14.20;99.90
9385;DHT22;4732;49.340;10.886;2023-11-19T12:38:22;14.30;99.90
9385;DHT22;4732;49.340;10.886;2023-11-19T12:41:14;14.10;99.90
9385;DHT22;4732;49.340;10.886;2023-11-19T12:43:43;14.10;99.90
9385;DHT22;4732;49.340;10.886;2023-11-19T12:46:22;14.10;99.90
9385;DHT22;4732;49.340;10.886;2023-11-19T12:48:48;14.20;99.90
9385;DHT22;4732;49.340;10.886;2023-11-19T12:51:14;14.20;99.90
9385;DHT22;4732;49.340;10.886;2023-11-19T12:53:52;14.20;99.90
9385;DHT22;4732;49.340;10.886;2023-11-19T12:56:23;14.20;99.90
9385;DHT22;4732;49.340;10.886;2023-11-19T12:58:50;14.30;99.90
9385;DHT22;4732;49.340;10.886;2023-11-19T13:01:17;14.30;99.90
9385;DHT22;4732;49.340;10.886;2023-11-19T13:03:44;14.30;99.90
9385;DHT22;4732;49.340;10.886;2023-11-19T13:06:12;14.30;99.90
9385;DHT22;4732;49.340;10.886;2023-11-19T13:08:44;14.10;99.90
9385;DHT22;4732;49.340;10.886;2023-11-19T13:11:11;13.80;99.90
9385;DHT22;4732;49.340;10.886;2023-11-19T13:14:02;13.60;99.90
9385;DHT22;4732;49.340;10.886;2023-11-19T13:16:30;13.40;99.90
9385;DHT22;4732;49.340;10.886;2023-11-19T13:18:56;13.20;99.90
9385;DHT22;4732;49.340;10.886;2023-11-19T13:21:22;13.10;99.90
9385;DHT22;4732;49.340;10.886;2023-11-19T13:23:48;13.00;99.90
9385;DHT22;4732;49.340;10.886;2023-11-19T13:26:13;12.90;99.90
9385;DHT22;4732;49.340;10.886;2023-11-19T13:28:39;12.90;99.90
9385;DHT22;4732;49.340;10.886;2023-11-19T13:31:05;12.90;99.90
9385;DHT22;4732;49.340;10.886;2023-11-19T13:33:31;12.90;99.90
9385;DHT22;4732;49.340;10.886;2023-11-19T13:35:56;12.90;99.90
9385;DHT22;4732;49.340;10.886;2023-11-19T13:38:22;12.90;99.90
9385;DHT22;4732;49.340;10.886;2023-11-19T13:40:50;13.00;99.90
9385;DHT22;4732;49.340;10.886;2023-11-19T13:43:16;12.90;99.90
9385;DHT22;4732;49.340;10.886;2023-11-19T13:45:42;12.90;99.90
9385;DHT22;4732;49.340;10.886;2023-11-19T13:48:07;12.90;99.90
9385;DHT22;4732;49.340;10.886;2023-11-19T13:50:33;12.80;99.90
9385;DHT22;4732;49.340;10.886;2023-11-19T13:52:59;12.80;99.90
9385;DHT22;4732;49.340;10.886;2023-11-19T13:55:25;12.80;99.90
9385;DHT22;4732;49.340;10.886;2023-11-19T13:57:51;12.80;99.90
9385;DHT22;4732;49.340;10.886;2023-11-19T14:00:16;12.70;99.90
9385;DHT22;4732;49.340;10.886;2023-11-19T14:02:47;12.70;99.90
9385;DHT22;4732;49.340;10.886;2023-11-19T14:05:13;12.70;99.90
9385;DHT22;4732;49.340;10.886;2023-11-19T14:07:42;12.50;99.90
9385;DHT22;4732;49.340;10.886;2023-11-19T14:10:08;12.60;99.90
9385;DHT22;4732;49.340;10.886;2023-11-19T14:12:40;12.60;99.90
9385;DHT22;4732;49.340;10.886;2023-11-19T14:15:08;12.60;99.90
9385;DHT22;4732;49.340;10.886;2023-11-19T14:17:38;12.60;99.90
9385;DHT22;4732;49.340;10.886;2023-11-19T14:20:04;12.50;99.90
9385;DHT22;4732;49.340;10.886;2023-11-19T14:22:41;12.50;99.90
9385;DHT22;4732;49.340;10.886;2023-11-19T14:25:08;12.40;99.90
9385;DHT22;4732;49.340;10.886;2023-11-19T14:27:39;12.40;99.90
9385;DHT22;4732;49.340;10.886;2023-11-19T14:30:06;12.40;99.90
9385;DHT22;4732;49.340;10.886;2023-11-19T14:32:32;12.30;99.90
9385;DHT22;4732;49.340;10.886;2023-11-19T14:34:58;12.20;99.90
9385;DHT22;4732;49.340;10.886;2023-11-19T14:37:24;12.20;99.90
9385;DHT22;4732;49.340;10.886;2023-11-19T14:39:49;12.20;99.90
9385;DHT22;4732;49.340;10.886;2023-11-19T14:42:16;12.20;99.90
9385;DHT22;4732;49.340;10.886;2023-11-19T14:44:42;12.20;99.90
9385;DHT22;4732;49.340;10.886;2023-11-19T14:47:07;12.20;99.90
9385;DHT22;4732;49.340;10.886;2023-11-19T14:49:35;12.20;99.90
9385;DHT22;4732;49.340;10.886;2023-11-19T14:52:00;12.20;99.90
9385;DHT22;4732;49.340;10.886;2023-11-19T14:54:26;12.20;99.90
9385;DHT22;4732;49.340;10.886;2023-11-19T14:56:51;12.20;99.90
9385;DHT22;4732;49.340;10.886;2023-11-19T14:59:17;12.10;99.90
9385;DHT22;4732;49.340;10.886;2023-11-19T15:01:45;12.00;99.90
9385;DHT22;4732;49.340;10.886;2023-11-19T15:04:11;12.00;99.90
9385;DHT22;4732;49.340;10.886;2023-11-19T15:06:37;12.00;99.90
9385;DHT22;4732;49.340;10.886;2023-11-19T15:09:03;12.00;99.90
9385;DHT22;4732;49.340;10.886;2023-11-19T15:11:28;11.90;99.90
9385;DHT22;4732;49.340;10.886;2023-11-19T15:13:54;11.90;99.90
9385;DHT22;4732;49.340;10.886;2023-11-19T15:16:19;11.90;99.90
9385;DHT22;4732;49.340;10.886;2023-11-19T15:18:59;11.80;99.90
9385;DHT22;4732;49.340;10.886;2023-11-19T15:21:30;11.70;99.90
9385;DHT22;4732;49.340;10.886;2023-11-19T15:23:56;11.70;99.90
9385;DHT22;4732;49.340;10.886;2023-11-19T15:26:22;11.70;99.90
9385;DHT22;4732;49.340;10.886;2023-11-19T15:28:48;11.60;99.90
9385;DHT22;4732;49.340;10.886;2023-11-19T15:31:13;11.60;99.90
9385;DHT22;4732;49.340;10.886;2023-11-19T15:33:41;11.50;99.90
9385;DHT22;4732;49.340;10.886;2023-11-19T15:36:08;11.50;99.90
9385;DHT22;4732;49.340;10.886;2023-11-19T15:38:36;11.50;99.90
9385;DHT22;4732;49.340;10.886;2023-11-19T15:41:02;11.50;99.90
9385;DHT22;4732;49.340;10.886;2023-11-19T15:43:28;11.50;99.90
9385;DHT22;4732;49.340;10.886;2023-11-19T15:45:54;11.50;99.90
9385;DHT22;4732;49.340;10.886;2023-11-19T15:48:20;11.40;99.90
9385;DHT22;4732;49.340;10.886;2023-11-19T15:50:45;11.40;99.90
9385;DHT22;4732;49.340;10.886;2023-11-19T15:53:11;11.40;99.90
9385;DHT22;4732;49.340;10.886;2023-11-19T15:55:36;11.40;99.90
9385;DHT22;4732;49.340;10.886;2023-11-19T15:58:03;11.40;99.90
9385;DHT22;4732;49.340;10.886;2023-11-19T16:00:28;11.20;99.90
9385;DHT22;4732;49.340;10.886;2023-11-19T16:02:54;11.30;99.90
9385;DHT22;4732;49.340;10.886;2023-11-19T16:05:21;11.40;99.90
9385;DHT22;4732;49.340;10.886;2023-11-19T16:07:47;11.30;99.90
9385;DHT22;4732;49.340;10.886;2023-11-19T16:10:12;11.30;99.90
9385;DHT22;4732;49.340;10.886;2023-11-19T16:12:39;11.20;99.90
9385;DHT22;4732;49.340;10.886;2023-11-19T16:15:06;11.20;99.90
9385;DHT22;4732;49.340;10.886;2023-11-19T16:17:33;11.10;99.90
9385;DHT22;4732;49.340;10.886;2023-11-19T16:20:02;11.20;99.90
9385;DHT22;4732;49.340;10.886;2023-11-19T16:22:27;11.20;99.90
9385;DHT22;4732;49.340;10.886;2023-11-19T16:24:53;11.20;99.90
9385;DHT22;4732;49.340;10.886;2023-11-19T16:27:20;11.10;99.90
9385;DHT22;4732;49.340;10.886;2023-11-19T16:29:45;11.00;99.90
9385;DHT22;4732;49.340;10.886;2023-11-19T16:32:11;11.00;99.90
9385;DHT22;4732;49.340;10.886;2023-11-19T16:34:37;11.00;99.90
9385;DHT22;4732;49.340;10.886;2023-11-19T16:37:08;11.00;99.90
9385;DHT22;4732;49.340;10.886;2023-11-19T16:39:35;10.90;99.90
9385;DHT22;4732;49.340;10.886;2023-11-19T16:42:00;11.00;99.90
9385;DHT22;4732;49.340;10.886;2023-11-19T16:44:26;11.00;99.90
9385;DHT22;4732;49.340;10.886;2023-11-19T16:46:51;11.00;99.90
9385;DHT22;4732;49.340;10.886;2023-11-19T16:49:17;10.90;99.90
9385;DHT22;4732;49.340;10.886;2023-11-19T16:51:46;10.80;99.90
9385;DHT22;4732;49.340;10.886;2023-11-19T16:54:12;10.80;99.90
9385;DHT22;4732;49.340;10.886;2023-11-19T16:56:38;10.70;99.90
9385;DHT22;4732;49.340;10.886;2023-11-19T16:59:06;10.70;99.90
9385;DHT22;4732;49.340;10.886;2023-11-19T17:01:31;10.70;99.90
9385;DHT22;4732;49.340;10.886;2023-11-19T17:03:57;10.70;99.90
9385;DHT22;4732;49.340;10.886;2023-11-19T17:06:23;10.70;99.90
9385;DHT22;4732;49.340;10.886;2023-11-19T17:08:49;10.80;99.90
9385;DHT22;4732;49.340;10.886;2023-11-19T17:11:14;10.80;99.90
9385;DHT22;4732;49.340;10.886;2023-11-19T17:13:40;11.00;99.90
9385;DHT22;4732;49.340;10.886;2023-11-19T17:16:05;11.10;99.90
9385;DHT22;4732;49.340;10.886;2023-11-19T17:18:33;11.10;99.90
9385;DHT22;4732;49.340;10.886;2023-11-19T17:20:59;11.10;99.90
9385;DHT22;4732;49.340;10.886;2023-11-19T17:23:26;11.20;99.90
9385;DHT22;4732;49.340;10.886;2023-11-19T17:25:52;11.20;99.90
9385;DHT22;4732;49.340;10.886;2023-11-19T17:28:17;11.20;99.90
9385;DHT22;4732;49.340;10.886;2023-11-19T17:30:43;11.10;99.90
9385;DHT22;4732;49.340;10.886;2023-11-19T17:33:09;11.10;99.90
9385;DHT22;4732;49.340;10.886;2023-11-19T17:35:35;11.00;99.90
9385;DHT22;4732;49.340;10.886;2023-11-19T17:38:01;11.00;99.90
9385;DHT22;4732;49.340;10.886;2023-11-19T17:40:27;11.00;99.90
9385;DHT22;4732;49.340;10.886;2023-11-19T17:42:53;11.00;99.90
9385;DHT22;4732;49.340;10.886;2023-11-19T17:45:19;11.00;99.90
9385;DHT22;4732;49.340;10.886;2023-11-19T17:47:44;11.00;99.90
9385;DHT22;4732;49.340;10.886;2023-11-19T17:50:10;11.00;99.90
9385;DHT22;4732;49.340;10.886;2023-11-19T17:52:36;11.00;99.90
9385;DHT22;4732;49.340;10.886;2023-11-19T17:55:01;11.00;99.90
9385;DHT22;4732;49.340;10.886;2023-11-19T17:57:30;11.00;99.90
9385;DHT22;4732;49.340;10.886;2023-11-19T17:59:55;11.00;99.90
9385;DHT22;4732;49.340;10.886;2023-11-19T18:02:21;11.00;99.90
9385;DHT22;4732;49.340;10.886;2023-11-19T18:04:47;10.90;99.90
9385;DHT22;4732;49.340;10.886;2023-11-19T18:07:18;10.80;99.90
9385;DHT22;4732;49.340;10.886;2023-11-19T18:09:44;10.70;99.90
9385;DHT22;4732;49.340;10.886;2023-11-19T18:12:12;10.60;99.90
9385;DHT22;4732;49.340;10.886;2023-11-19T18:14:39;10.50;99.90
9385;DHT22;4732;49.340;10.886;2023-11-19T18:17:04;10.40;99.90
9385;DHT22;4732;49.340;10.886;2023-11-19T18:19:30;10.40;99.90
9385;DHT22;4732;49.340;10.886;2023-11-19T18:21:56;10.30;99.90
9385;DHT22;4732;49.340;10.886;2023-11-19T18:24:23;10.30;99.90
9385;DHT22;4732;49.340;10.886;2023-11-19T18:26:49;10.20;99.90
9385;DHT22;4732;49.340;10.886;2023-11-19T18:29:15;10.20;99.90
9385;DHT22;4732;49.340;10.886;2023-11-19T18:31:45;10.10;99.90
9385;DHT22;4732;49.340;10.886;2023-11-19T18:34:10;10.10;99.90
9385;DHT22;4732;49.340;10.886;2023-11-19T18:36:36;10.10;99.90
9385;DHT22;4732;49.340;10.886;2023-11-19T18:39:04;10.00;99.90
9385;DHT22;4732;49.340;10.886;2023-11-19T18:41:29;10.00;99.90
9385;DHT22;4732;49.340;10.886;2023-11-19T18:43:55;10.00;99.90
9385;DHT22;4732;49.340;10.886;2023-11-19T18:46:21;10.10;99.90
9385;DHT22;4732;49.340;10.886;2023-11-19T18:48:47;10.20;99.90
9385;DHT22;4732;49.340;10.886;2023-11-19T18:51:12;10.20;99.90
9385;DHT22;4732;49.340;10.886;2023-11-19T18:53:40;10.20;99.90
9385;DHT22;4732;49.340;10.886;2023-11-19T18:56:07;10.20;99.90
9385;DHT22;4732;49.340;10.886;2023-11-19T18:58:33;10.20;99.90
9385;DHT22;4732;49.340;10.886;2023-11-19T19:01:00;10.20;99.90
9385;DHT22;4732;49.340;10.886;2023-11-19T19:03:25;10.20;99.90
9385;DHT22;4732;49.340;10.886;2023-11-19T19:05:53;10.20;99.90
9385;DHT22;4732;49.340;10.886;2023-11-19T19:08:19;10.20;99.90
9385;DHT22;4732;49.340;10.886;2023-11-19T19:10:44;10.20;99.90
9385;DHT22;4732;49.340;10.886;2023-11-19T19:13:10;10.10;99.90
9385;DHT22;4732;49.340;10.886;2023-11-19T19:15:36;10.10;99.90
9385;DHT22;4732;49.340;10.886;2023-11-19T19:18:02;10.20;99.90
9385;DHT22;4732;49.340;10.886;2023-11-19T19:20:28;10.20;99.90
9385;DHT22;4732;49.340;10.886;2023-11-19T19:22:54;10.50;99.90
9385;DHT22;4732;49.340;10.886;2023-11-19T19:25:19;10.60;99.90
9385;DHT22;4732;49.340;10.886;2023-11-19T19:27:45;10.60;99.90
9385;DHT22;4732;49.340;10.886;2023-11-19T19:30:11;10.60;99.90
9385;DHT22;4732;49.340;10.886;2023-11-19T19:32:36;10.50;99.90
9385;DHT22;4732;49.340;10.886;2023-11-19T19:35:04;10.50;99.90
9385;DHT22;4732;49.340;10.886;2023-11-19T19:37:30;10.50;99.90
9385;DHT22;4732;49.340;10.886;2023-11-19T19:39:55;10.50;99.90
9385;DHT22;4732;49.340;10.886;2023-11-19T19:42:21;10.40;99.90
9385;DHT22;4732;49.340;10.886;2023-11-19T19:44:48;10.40;99.90
9385;DHT22;4732;49.340;10.886;2023-11-19T19:47:13;10.30;99.90
9385;DHT22;4732;49.340;10.886;2023-11-19T19:49:39;10.30;99.90
9385;DHT22;4732;49.340;10.886;2023-11-19T19:52:05;10.20;99.90
9385;DHT22;4732;49.340;10.886;2023-11-19T19:54:30;10.20;99.90
9385;DHT22;4732;49.340;10.886;2023-11-19T19:56:57;10.20;99.90
9385;DHT22;4732;49.340;10.886;2023-11-19T19:59:23;10.20;99.90
9385;DHT22;4732;49.340;10.886;2023-11-19T20:01:48;10.20;99.90
9385;DHT22;4732;49.340;10.886;2023-11-19T20:04:17;10.10;99.90
9385;DHT22;4732;49.340;10.886;2023-11-19T20:06:42;10.10;99.90